Airfield :
LOGIN :

Register | Disclaimer

   EN    FR    IT 

 










Legend :    VFR   Marginal VFR   IFR   Intensive IFR   Very Intensive IFR
Visi :
Ceiling :
>= 8 km
>= 3000ft
5 to 8 km
1000 to 3000 ft
1500m to 5 km
500 to 1000 ft
800 to 1500m
200 to 500 ft
< 800m
< 200 ft
Symbols :   Thunderstorms  Fog  Heavy snow  Heavy precipitations  Wind > 20 kt
SIGMETs :     Misc.  Thunderstorms  Icing  Turbulence  Mountain Waves  Volcanic Ashes






- Airport Elevation : 913 ft


LFSX - Luxeuil

CURRENT METAR :
  • 272230Z AUTO 29005KT CAVOK 12/12 Q1024

EXPIRED METARs :
  • 272200Z AUTO 30005KT CAVOK 13/12 Q1024
  • 272130Z AUTO 28005KT CAVOK 13/12 Q1024
  • 272100Z AUTO 29004KT CAVOK 14/13 Q1023
  • 272030Z AUTO 29005KT 9999 FEW015 SCT048 BKN056 15/13 Q1023
  • 272000Z AUTO 29006KT 9999 FEW010/// OVC044/// ///TCU 15/13 Q1022

TAF TAF LFSX
Valid from the 27 at 15:00 until the 28 at 15:00 UTC


271400Z 2715/2815 16006KT CAVOK
TEMPO 2719/2721 30010G20KT 4500 RA BKN024
TEMPO 2804/2807 3000 BR



MET'MAP, your aeronautical weather chart ! - Copyright ORBIFLY December 2007 - Disclaimer

ORBIFLY MET'MAP TEAM :

Programming & Development : Alexandra Zaïnal
Concept & original design : Baudouin d'Aumeries
Assistance for programming : Marc-Olivier Méhu
Technical & hardware support : Manuel Goepfert

Contact : metmap@orbifly.com




SOURCES & CREDITS :

   NOAA